Time;durP1;ratioP1;P1;durP2;ratioP2;P2;SDS_P1;SDS_P2;PMS_P1;PMS_P2;Temp;Humidity;BMP_temperature;BMP_pressure;BME280_temperature;BME280_humidity;BME280_pressure;Samples;Min_cycle;Max_cycle;Signal;HPM_P1;HPM_P2
2023/03/23 00:01:30;;;;;;;22.08;8.70;;;;;;;3.60;74.45;64100.19;5096380;28;20040;-77
2023/03/23 00:03:57;;;;;;;15.02;8.93;;;;;;;3.49;74.73;64087.34;5078326;28;20204;-77
2023/03/23 00:06:25;;;;;;;12.95;8.82;;;;;;;3.39;74.76;64076.75;5112049;28;20491;-77
2023/03/23 00:08:56;;;;;;;16.33;9.15;;;;;;;3.32;74.92;64068.91;5111951;28;20050;-77
2023/03/23 00:11:26;;;;;;;13.32;8.88;;;;;;;3.23;75.07;64058.84;5077751;28;20398;-77
2023/03/23 00:13:52;;;;;;;19.33;8.95;;;;;;;3.15;74.83;64051.03;5094850;28;20479;-78
2023/03/23 00:16:28;;;;;;;17.75;9.13;;;;;;;3.13;74.66;64048.25;5061145;28;20051;-77
2023/03/23 00:18:56;;;;;;;17.95;8.93;;;;;;;3.06;75.21;64040.97;5077943;28;20044;-78
2023/03/23 00:21:33;;;;;;;14.02;8.48;;;;;;;3.04;75.22;64054.44;5095997;28;20479;-78
2023/03/23 00:24:02;;;;;;;23.65;9.32;;;;;;;3.00;75.05;64033.72;5078133;28;20051;-78
2023/03/23 00:26:29;;;;;;;20.60;9.55;;;;;;;2.98;74.63;64031.50;5095945;28;20032;-77
2023/03/23 00:28:56;;;;;;;17.50;10.20;;;;;;;2.97;74.71;64030.34;5077575;28;20082;-77
2023/03/23 00:31:22;;;;;;;13.73;9.27;;;;;;;2.95;74.70;64028.69;5094576;28;20036;-78
2023/03/23 00:33:48;;;;;;;20.02;9.85;;;;;;;2.93;74.82;64026.44;5094333;28;20048;-77
2023/03/23 00:36:14;;;;;;;18.80;10.25;;;;;;;2.97;74.66;64030.94;5094548;28;20130;-77
2023/03/23 00:38:43;;;;;;;15.40;9.10;;;;;;;2.90;74.62;64023.13;5060792;28;20379;-77
2023/03/23 00:41:11;;;;;;;16.33;9.68;;;;;;;2.88;74.58;64020.88;5077523;28;20069;-77
2023/03/23 00:43:37;;;;;;;15.93;9.40;;;;;;;2.86;74.45;64018.66;5094407;28;20044;-77
2023/03/23 00:46:08;;;;;;;15.20;9.13;;;;;;;2.87;74.43;64019.75;5111585;28;20516;-77
2023/03/23 00:48:35;;;;;;;16.58;10.18;;;;;;;2.83;74.27;64015.28;5095610;28;20054;-79
2023/03/23 00:51:05;;;;;;;15.73;9.10;;;;;;;2.80;74.36;64011.94;5094017;28;20142;-79
2023/03/23 00:53:32;;;;;;;14.48;8.77;;;;;;;2.72;74.44;64003.56;5094243;28;20040;-77
2023/03/23 00:55:58;;;;;;;14.80;9.57;;;;;;;2.65;74.68;63996.31;5077359;28;20047;-77
2023/03/23 00:58:25;;;;;;;14.52;8.65;;;;;;;2.58;74.93;63987.94;5094142;28;20040;-77
2023/03/23 01:00:51;;;;;;;22.00;10.00;;;;;;;2.63;74.34;63993.50;5077023;28;20399;-77
2023/03/23 01:03:18;;;;;;;16.52;8.75;;;;;;;2.61;74.39;63991.84;5095372;28;20044;-77
2023/03/23 01:05:46;;;;;;;20.35;9.50;;;;;;;2.58;74.40;64004.19;5093772;28;20497;-77
2023/03/23 01:08:14;;;;;;;14.55;9.57;;;;;;;2.58;74.38;63988.50;5093558;28;20040;-77
2023/03/23 01:10:40;;;;;;;16.52;9.52;;;;;;;2.57;74.61;64003.06;5076672;28;20499;-77
2023/03/23 01:13:07;;;;;;;16.80;9.43;;;;;;;2.54;74.47;63999.72;5060307;28;20136;-77
2023/03/23 01:15:33;;;;;;;14.13;9.10;;;;;;;2.53;74.08;63982.91;5077265;28;20052;-78
2023/03/23 01:18:00;;;;;;;15.30;9.52;;;;;;;2.52;74.34;63981.81;5093650;28;20039;-77
2023/03/23 01:20:31;;;;;;;18.48;9.55;;;;;;;2.53;74.25;63982.34;5060029;28;20044;-77
2023/03/23 01:23:00;;;;;;;18.42;9.98;;;;;;;2.47;74.04;63976.22;5093704;28;20051;-77
2023/03/23 01:25:31;;;;;;;16.75;9.65;;;;;;;2.47;74.51;63991.34;5093660;28;20040;-77
2023/03/23 01:27:58;;;;;;;16.13;9.75;;;;;;;2.45;74.19;63989.69;5110333;28;20490;-78
2023/03/23 01:30:25;;;;;;;19.05;9.00;;;;;;;2.45;74.28;63974.00;5110406;28;20119;-77
2023/03/23 01:32:51;;;;;;;14.77;9.50;;;;;;;2.37;73.98;63965.03;5093393;28;20071;-77
2023/03/23 01:35:18;;;;;;;18.38;9.73;;;;;;;2.35;74.12;63963.38;5076592;28;20071;-78
2023/03/23 01:37:44;;;;;;;17.17;9.50;;;;;;;2.32;74.16;63959.47;5093322;28;20402;-77
2023/03/23 01:40:11;;;;;;;19.38;10.32;;;;;;;2.30;74.32;63957.25;5076470;28;20469;-78
2023/03/23 01:42:38;;;;;;;19.55;10.15;;;;;;;2.28;74.45;63955.00;5076414;28;20043;-77
2023/03/23 01:45:29;;;;;;;18.42;9.55;;;;;;;2.26;74.33;63952.75;5109944;28;20114;-77
2023/03/23 01:47:57;;;;;;;;;;;;;;;2.23;74.40;63949.97;5093448;28;20050;-77
2023/03/23 01:50:26;;;;;;;22.98;9.57;;;;;;;2.13;73.87;63954.50;5092595;28;19935;-78
2023/03/23 01:52:56;;;;;;;16.30;9.68;;;;;;;2.05;74.05;63946.13;5076364;28;20040;-76
2023/03/23 01:55:24;;;;;;;23.38;9.57;;;;;;;2.02;74.48;63927.09;5093155;28;20044;-77
2023/03/23 01:57:50;;;;;;;18.42;10.30;;;;;;;1.95;74.63;63919.28;5109474;28;20487;-78
2023/03/23 02:00:17;;;;;;;19.38;9.98;;;;;;;1.94;75.09;63918.19;5092803;28;20039;-78
2023/03/23 02:02:52;;;;;;;20.38;10.30;;;;;;;1.91;74.74;63915.38;5077194;28;20122;-78
2023/03/23 02:05:33;;;;;;;21.73;10.18;;;;;;;1.86;74.87;63909.81;5076089;28;20047;-78
2023/03/23 02:08:05;;;;;;;19.67;10.65;;;;;;;1.80;75.13;63903.09;5076824;28;20124;-78
2023/03/23 02:10:35;;;;;;;20.77;10.30;;;;;;;1.80;74.94;63902.56;5059595;28;20044;-79
2023/03/23 02:13:04;;;;;;;16.48;10.25;;;;;;;1.77;75.16;63899.78;5092530;28;20130;-77
2023/03/23 02:15:44;;;;;;;17.83;10.75;;;;;;;1.60;76.35;63897.03;5092709;28;20044;-77
2023/03/23 02:18:20;;;;;;;18.60;10.10;;;;;;;1.58;77.01;63878.56;5059906;28;20032;-77
2023/03/23 02:20:49;;;;;;;25.95;11.07;;;;;;;1.54;76.47;63874.09;5059131;28;20048;-78
2023/03/23 02:23:46;;;;;;;18.70;10.00;;;;;;;1.49;76.79;63869.09;5074934;28;20514;-78
2023/03/23 02:26:18;;;;;;;15.90;10.00;;;;;;;1.47;76.47;63866.88;5058081;28;20083;-77
2023/03/23 02:28:44;;;;;;;19.55;10.15;;;;;;;1.47;76.87;63866.88;5058224;28;20062;-79
2023/03/23 02:31:43;;;;;;;17.40;10.20;;;;;;;1.43;76.87;63862.41;5074743;28;20044;-77
2023/03/23 02:34:18;;;;;;;21.83;10.88;;;;;;;1.53;76.54;63873.00;5074956;28;20506;-78
2023/03/23 02:36:52;;;;;;;18.95;10.60;;;;;;;1.54;76.58;63874.66;5092010;28;20147;-80
2023/03/23 02:39:25;;;;;;;19.67;10.32;;;;;;;1.57;77.11;63878.00;5075119;28;20044;-77
2023/03/23 02:42:00;;;;;;;22.83;10.85;;;;;;;1.62;76.74;63883.03;5092229;28;20047;-77
2023/03/23 02:44:29;;;;;;;22.88;10.95;;;;;;;1.65;77.11;63886.94;5093331;28;20089;-79
2023/03/23 02:46:59;;;;;;;21.13;10.25;;;;;;;1.74;76.85;63896.44;5091923;28;20059;-81
2023/03/23 02:49:30;;;;;;;16.93;10.27;;;;;;;1.78;76.58;63900.34;5072941;28;20040;-78
2023/03/23 02:51:59;;;;;;;19.08;10.38;;;;;;;1.75;77.21;63896.97;5092179;28;20147;-84
2023/03/23 02:54:26;;;;;;;22.48;10.70;;;;;;;1.70;77.04;63891.97;5074689;28;20086;-78
2023/03/23 02:56:54;;;;;;;18.77;10.55;;;;;;;1.76;77.01;63898.09;5074643;28;20036;-78
2023/03/23 02:59:25;;;;;;;18.30;10.40;;;;;;;1.80;76.79;63903.09;5075625;28;20044;-78
2023/03/23 03:01:58;;;;;;;21.48;10.45;;;;;;;1.89;76.79;63912.59;5091069;28;20078;-79
2023/03/23 03:04:28;;;;;;;22.20;11.00;;;;;;;1.75;77.00;63896.97;5075222;28;20059;-82
2023/03/23 03:07:35;;;;;;;;;;;;;;;1.69;77.63;63890.84;5075502;28;20051;-78
2023/03/23 03:10:15;;;;;;;24.23;10.95;;;;;;;1.67;77.79;63904.28;5010420;28;19924;-79
2023/03/23 03:13:06;;;;;;;16.48;9.57;;;;;;;1.72;77.26;63909.31;5011169;28;20065;-80
2023/03/23 03:15:37;;;;;;;18.88;10.57;;;;;;;1.79;76.97;63901.44;5033988;28;20064;-79
2023/03/23 03:18:13;;;;;;;20.02;10.90;;;;;;;1.86;77.04;63909.25;5074768;28;20225;-84
2023/03/23 03:20:46;;;;;;;18.48;11.02;;;;;;;1.98;76.54;63922.63;5109220;28;20052;-79
2023/03/23 03:23:15;;;;;;;18.77;11.13;;;;;;;1.98;76.57;63938.31;5075132;28;20047;-80
2023/03/23 03:25:47;;;;;;;21.00;12.05;;;;;;;2.07;76.48;63932.69;5108129;28;20126;-81
2023/03/23 03:28:21;;;;;;;21.40;10.52;;;;;;;2.17;76.30;63958.97;5091716;28;20101;-79
2023/03/23 03:30:55;;;;;;;20.13;10.73;;;;;;;2.28;76.30;63955.00;5076808;28;20514;-84
2023/03/23 03:33:27;;;;;;;20.67;10.95;;;;;;;2.34;75.68;63961.72;5060585;28;20464;-82
2023/03/23 03:35:56;;;;;;;25.45;12.57;;;;;;;2.45;75.87;63974.00;5093990;28;20410;-74
2023/03/23 03:38:22;;;;;;;21.55;12.95;;;;;;;2.56;75.64;64001.97;5093883;28;20126;-76
2023/03/23 03:40:50;;;;;;;27.20;13.57;;;;;;;2.66;74.84;63997.41;5077035;28;20606;-80
2023/03/23 03:43:16;;;;;;;22.15;12.65;;;;;;;2.76;74.76;64008.03;5060311;28;20069;-78
2023/03/23 03:45:44;;;;;;;19.58;12.23;;;;;;;2.81;74.40;64013.59;5077162;28;20052;-79
2023/03/23 03:48:11;;;;;;;21.67;11.57;;;;;;;2.88;74.18;64021.44;5093516;28;20526;-81
2023/03/23 03:50:38;;;;;;;23.63;12.13;;;;;;;3.00;73.92;64034.28;5076665;28;20056;-76
2023/03/23 03:53:05;;;;;;;22.92;11.57;;;;;;;3.00;73.31;64049.97;5076655;28;20046;-76
2023/03/23 03:55:35;;;;;;;19.92;11.93;;;;;;;3.09;72.96;64044.34;5076643;28;20058;-80
2023/03/23 03:58:04;;;;;;;16.23;11.10;;;;;;;3.20;72.70;64055.50;5075512;28;20089;-80
2023/03/23 04:00:49;;;;;;;22.83;11.15;;;;;;;3.29;72.76;64081.28;5094033;28;20046;-80
2023/03/23 04:03:18;;;;;;;25.33;11.40;;;;;;;3.42;72.34;64080.06;5058229;28;20135;-78
2023/03/23 04:06:04;;;;;;;20.77;11.35;;;;;;;3.52;72.02;64091.25;5091150;28;20511;-79
2023/03/23 04:08:31;;;;;;;21.02;11.32;;;;;;;3.64;71.98;64104.66;5090824;28;20078;-80
2023/03/23 04:10:57;;;;;;;22.95;10.80;;;;;;;3.79;71.56;64120.31;5058188;28;20048;-78
2023/03/23 04:13:24;;;;;;;21.30;10.88;;;;;;;3.92;71.35;64134.84;5061120;28;20044;-80
2023/03/23 04:16:00;;;;;;;27.13;11.43;;;;;;;3.99;70.65;64142.13;5079089;28;20051;-78
2023/03/23 04:18:26;;;;;;;19.38;11.00;;;;;;;4.03;70.27;64147.16;5094670;28;20047;-78
2023/03/23 04:20:53;;;;;;;19.80;12.38;;;;;;;3.92;70.37;64134.31;5078119;28;20574;-81
2023/03/23 04:23:21;;;;;;;25.60;12.75;;;;;;;4.04;70.23;64148.25;5078128;28;20122;-84
2023/03/23 04:25:49;;;;;;;23.88;10.55;;;;;;;4.21;70.01;64166.16;5077865;28;20047;-83
2023/03/23 04:28:18;;;;;;;23.30;11.70;;;;;;;4.30;69.75;64176.22;5084515;28;20048;-78
2023/03/23 04:30:57;;;;;;;31.17;11.35;;;;;;;4.37;69.30;64184.06;5079631;28;20051;-80
2023/03/23 04:33:26;;;;;;;27.52;12.38;;;;;;;4.43;69.27;64190.75;5094288;28;20562;-77
2023/03/23 04:35:54;;;;;;;32.75;12.25;;;;;;;4.51;69.10;64199.69;5077410;28;20032;-81
2023/03/23 04:38:54;;;;;;;24.63;11.30;;;;;;;4.60;68.95;64209.78;5087645;28;20048;-78
2023/03/23 04:41:22;;;;;;;;;;;;;;;4.75;68.85;64225.44;5077999;28;20414;-78
2023/03/23 04:44:17;;;;;;;28.02;11.15;;;;;;;4.87;68.38;64238.88;5059621;28;19959;-76
2023/03/23 04:46:49;;;;;;;41.60;11.85;;;;;;;5.02;67.85;64255.66;5041807;28;20094;-79
2023/03/23 04:49:20;;;;;;;34.97;12.27;;;;;;;5.03;67.51;64256.78;5074545;28;20044;-80
2023/03/23 04:51:50;;;;;;;23.70;12.07;;;;;;;5.07;67.18;64261.25;5057271;28;20167;-78
2023/03/23 04:54:24;;;;;;;29.98;11.40;;;;;;;5.19;67.25;64273.56;5092959;28;20062;-78
2023/03/23 04:56:54;;;;;;;29.80;13.27;;;;;;;5.24;66.94;64279.19;5061041;28;20085;-78
2023/03/23 04:59:21;;;;;;;23.95;11.90;;;;;;;5.18;66.96;64273.00;5092804;28;20040;-78
2023/03/23 05:01:55;;;;;;;22.10;12.50;;;;;;;5.33;66.89;64289.25;5073639;28;20074;-78
2023/03/23 05:04:24;;;;;;;31.02;12.13;;;;;;;5.49;66.84;64307.16;5076769;28;20051;-80
2023/03/23 05:07:08;;;;;;;22.58;11.88;;;;;;;5.59;66.23;64317.78;5094180;28;20036;-79
2023/03/23 05:09:41;;;;;;;22.30;12.82;;;;;;;5.66;65.75;64325.63;5064580;28;20044;-78
2023/03/23 05:12:09;;;;;;;26.13;12.57;;;;;;;5.76;66.02;64336.28;5056689;28;20041;-78
2023/03/23 05:14:43;;;;;;;21.35;12.32;;;;;;;5.94;65.56;64355.91;5040952;28;20066;-78
2023/03/23 05:17:16;;;;;;;22.30;13.18;;;;;;;6.05;65.24;64368.78;5056585;28;20143;-80
2023/03/23 05:19:47;;;;;;;21.65;12.45;;;;;;;6.22;65.12;64386.72;5043382;28;20501;-79
2023/03/23 05:22:33;;;;;;;25.02;13.55;;;;;;;6.44;64.56;64411.38;5042317;28;20044;-78
2023/03/23 05:25:04;;;;;;;25.27;13.35;;;;;;;6.58;64.08;64426.50;5071764;28;20562;-79
2023/03/23 05:27:33;;;;;;;27.73;12.75;;;;;;;6.71;63.32;64441.06;5039847;28;20074;-78
2023/03/23 05:30:09;;;;;;;26.45;14.30;;;;;;;6.85;62.54;64456.22;5073231;28;20044;-79
2023/03/23 05:32:38;;;;;;;30.55;14.63;;;;;;;6.76;61.69;64446.13;5056540;28;20055;-79
2023/03/23 05:35:33;;;;;;;37.67;14.35;;;;;;;6.78;61.57;64448.38;5043814;28;20525;-79
2023/03/23 05:38:01;;;;;;;25.80;14.10;;;;;;;6.77;61.47;64447.22;5056179;28;20139;-78
2023/03/23 05:40:27;;;;;;;22.23;13.30;;;;;;;6.76;61.52;64446.69;5039569;28;20408;-78
2023/03/23 05:43:10;;;;;;;28.98;13.93;;;;;;;6.85;60.95;64455.66;5058161;28;20052;-80
2023/03/23 05:45:56;;;;;;;23.17;14.50;;;;;;;6.99;61.02;64471.91;5072624;28;20047;-78
2023/03/23 05:48:23;;;;;;;30.50;15.40;;;;;;;7.05;60.60;64478.63;5055575;28;20048;-79
2023/03/23 05:50:51;;;;;;;24.48;14.88;;;;;;;6.89;60.84;64460.16;5039956;28;20048;-78
2023/03/23 05:53:21;;;;;;;;;;;;;;;6.84;61.25;64455.09;5072846;28;20211;-77
2023/03/23 05:55:47;;;;;;;27.63;16.10;;;;;;;7.08;61.37;64480.88;5055837;28;20370;-80
2023/03/23 05:58:33;;;;;;;33.60;17.05;;;;;;;7.34;60.51;64510.06;5073259;28;20499;-78
2023/03/23 06:00:59;;;;;;;28.13;15.65;;;;;;;7.45;59.50;64522.41;5039501;28;20139;-78
2023/03/23 06:03:28;;;;;;;29.35;15.52;;;;;;;7.38;59.83;64514.53;5072630;28;20044;-78
2023/03/23 06:06:05;;;;;;;26.38;15.30;;;;;;;7.53;59.84;64530.81;5072574;28;20045;-78
2023/03/23 06:08:40;;;;;;;25.83;14.23;;;;;;;7.67;59.07;64545.94;5055945;28;20389;-79
2023/03/23 06:11:06;;;;;;;31.15;14.18;;;;;;;7.82;59.33;64562.78;5039001;28;20483;-78
2023/03/23 06:13:37;;;;;;;31.77;16.70;;;;;;;8.02;59.02;64584.69;5072561;28;20047;-78
2023/03/23 06:16:08;;;;;;;29.60;14.07;;;;;;;8.18;58.41;64602.06;5072334;28;20056;-78
2023/03/23 06:18:49;;;;;;;25.48;13.75;;;;;;;8.12;57.38;64595.34;5055661;28;20483;-78
2023/03/23 06:21:31;;;;;;;26.50;13.25;;;;;;;8.11;57.93;64594.22;5040977;28;20131;-78
2023/03/23 06:24:21;;;;;;;24.13;13.05;;;;;;;8.18;57.46;64602.06;5053302;28;20076;-78
2023/03/23 06:26:48;;;;;;;20.05;13.68;;;;;;;8.31;58.15;64616.66;5055144;28;20395;-78
2023/03/23 06:29:18;;;;;;;26.30;13.13;;;;;;;8.39;57.44;64625.69;5072125;28;20044;-77
2023/03/23 06:31:54;;;;;;;29.02;13.55;;;;;;;8.61;57.70;64649.25;5055916;28;20119;-78
2023/03/23 06:34:20;;;;;;;31.17;13.73;;;;;;;8.86;56.99;64676.78;5055212;28;20040;-79
2023/03/23 06:37:06;;;;;;;21.98;12.52;;;;;;;8.99;56.01;64691.41;5057605;28;20534;-79
2023/03/23 06:39:38;;;;;;;23.42;14.43;;;;;;;9.09;55.62;64702.63;5072003;28;20487;-78
2023/03/23 06:42:24;;;;;;;24.80;13.00;;;;;;;9.08;55.32;64700.94;5072005;28;20057;-78
2023/03/23 06:45:04;;;;;;;22.92;12.68;;;;;;;9.09;54.91;64702.63;5072234;28;20048;-78
2023/03/23 06:47:31;;;;;;;23.85;12.77;;;;;;;9.18;55.23;64712.19;5038542;28;20072;-78
2023/03/23 06:49:58;;;;;;;23.73;14.25;;;;;;;9.34;54.85;64730.16;5055150;28;20090;-80
2023/03/23 06:52:27;;;;;;;24.75;13.80;;;;;;;9.51;54.57;64748.69;5038809;28;20066;-78
2023/03/23 06:54:53;;;;;;;25.40;14.85;;;;;;;9.36;53.99;64732.41;5071758;28;20047;-78
2023/03/23 06:57:20;;;;;;;28.92;15.38;;;;;;;9.59;54.64;64757.72;5071736;28;20139;-79
2023/03/23 06:59:48;;;;;;;32.08;16.20;;;;;;;9.77;53.83;64777.38;5054126;28;20419;-77
2023/03/23 07:02:14;;;;;;;32.05;17.70;;;;;;;9.67;53.39;64766.16;5071515;28;20453;-79
2023/03/23 07:04:42;;;;;;;38.70;19.60;;;;;;;9.63;54.04;64761.66;5071789;28;20123;-78
2023/03/23 07:07:18;;;;;;;48.03;20.45;;;;;;;9.85;53.93;64785.81;5039657;28;20123;-77
2023/03/23 07:09:52;;;;;;;34.63;20.73;;;;;;;9.96;53.58;64798.75;5056655;28;20131;-77
2023/03/23 07:12:22;;;;;;;42.90;21.00;;;;;;;10.01;52.89;64803.25;5071608;28;20093;-77
2023/03/23 07:14:49;;;;;;;48.80;21.73;;;;;;;9.98;53.02;64800.44;5054964;28;20044;-78
2023/03/23 07:17:16;;;;;;;39.88;19.95;;;;;;;9.98;52.93;64800.44;5054727;28;20071;-78
2023/03/23 07:20:02;;;;;;;39.85;21.52;;;;;;;10.01;52.88;64803.25;5054613;28;20063;-80
2023/03/23 07:22:29;;;;;;;41.28;21.58;;;;;;;9.91;53.13;64793.13;5071661;28;20048;-79
2023/03/23 07:25:04;;;;;;;46.28;21.50;;;;;;;9.91;52.63;64793.13;5039936;28;20458;-77
2023/03/23 07:27:41;;;;;;;38.38;20.98;;;;;;;9.56;53.15;64753.78;5056147;28;20428;-78
2023/03/23 07:30:07;;;;;;;42.08;21.73;;;;;;;9.65;53.95;64763.88;5071219;28;20407;-78
2023/03/23 07:32:33;;;;;;;39.67;21.23;;;;;;;9.47;53.64;64744.22;5054794;28;20048;-79
2023/03/23 07:34:59;;;;;;;39.10;19.55;;;;;;;9.38;53.91;64734.66;5038437;28;20527;-79
2023/03/23 07:37:52;;;;;;;38.63;19.48;;;;;;;9.29;54.12;64724.56;5070692;28;20186;-79
2023/03/23 07:40:18;;;;;;;32.00;18.77;;;;;;;9.24;54.29;64718.91;5071117;28;20566;-79
2023/03/23 07:42:56;;;;;;;34.13;18.83;;;;;;;9.13;54.33;64706.56;5072169;28;20037;-78
2023/03/23 07:45:33;;;;;;;37.22;20.08;;;;;;;9.27;55.28;64722.28;5071187;28;20045;-78
2023/03/23 07:47:59;;;;;;;34.20;19.80;;;;;;;9.17;54.18;64711.06;5056909;28;20036;-79
2023/03/23 07:50:26;;;;;;;50.35;23.15;;;;;;;9.24;54.66;64718.91;5058446;28;20049;-78
2023/03/23 07:52:55;;;;;;;53.83;25.25;;;;;;;9.49;54.38;64747.03;5074918;28;20044;-79
2023/03/23 07:55:24;;;;;;;49.97;26.95;;;;;;;9.63;53.64;64762.22;5058646;28;20044;-77
2023/03/23 07:58:19;;;;;;;62.70;30.88;;;;;;;9.65;53.59;64763.88;5072666;28;20143;-78
2023/03/23 08:00:48;;;;;;;52.60;28.65;;;;;;;9.66;52.99;64765.00;5057870;28;20523;-79
2023/03/23 08:03:16;;;;;;;67.03;30.60;;;;;;;9.74;53.43;64774.00;5074791;28;20051;-79
2023/03/23 08:06:00;;;;;;;72.57;34.00;;;;;;;9.84;53.27;64784.69;5075023;28;20086;-78
2023/03/23 08:09:06;;;;;;;76.85;34.65;;;;;;;10.12;52.38;64815.63;5013933;28;20385;-78
2023/03/23 08:11:59;;;;;;;69.32;33.75;;;;;;;10.35;52.12;64840.97;5079537;28;20579;-79
2023/03/23 08:14:33;;;;;;;79.85;33.55;;;;;;;10.43;51.44;64849.97;5059535;28;20047;-78
2023/03/23 08:17:26;;;;;;;65.10;29.98;;;;;;;10.37;51.27;64843.75;5072203;28;20048;-78
2023/03/23 08:20:13;;;;;;;71.78;30.10;;;;;;;10.35;51.83;64841.53;5060100;28;20040;-78
2023/03/23 08:23:12;;;;;;;77.65;32.85;;;;;;;10.41;51.25;64848.25;5051887;28;20048;-80
2023/03/23 08:26:08;;;;;;;86.30;36.78;;;;;;;10.77;51.65;64887.09;5037977;28;20048;-78
2023/03/23 08:28:53;;;;;;;;;;;;;;;10.89;50.44;64900.59;5043805;28;20110;-78
2023/03/23 08:31:19;;;;;;;55.17;26.85;;;;;;;11.10;50.39;64923.69;5075132;28;19920;-78
2023/03/23 08:34:15;;;;;;;44.38;21.60;;;;;;;11.08;49.87;64921.97;5065384;28;20095;-79
2023/03/23 08:37:04;;;;;;;42.83;22.35;;;;;;;11.09;50.07;64922.53;5055220;28;20064;-77
2023/03/23 08:39:33;;;;;;;45.17;22.85;;;;;;;11.27;50.33;64942.81;5074580;28;20075;-77
2023/03/23 08:42:09;;;;;;;50.20;22.80;;;;;;;11.30;49.59;64945.63;5074796;28;20048;-78
2023/03/23 08:44:54;;;;;;;34.65;19.00;;;;;;;11.28;49.83;64943.38;5075578;28;20388;-79
2023/03/23 08:47:38;;;;;;;32.50;19.75;;;;;;;11.40;49.51;64956.91;5060108;28;20048;-77
2023/03/23 08:50:17;;;;;;;35.38;18.00;;;;;;;11.34;49.43;64950.13;5073591;28;20051;-77
2023/03/23 08:53:01;;;;;;;34.38;18.55;;;;;;;11.53;49.57;64971.53;5073830;28;20040;-77
2023/03/23 08:55:34;;;;;;;29.20;18.05;;;;;;;11.66;49.02;64986.19;5058229;28;20125;-78
2023/03/23 08:58:18;;;;;;;30.13;18.13;;;;;;;11.60;48.85;64978.88;5059923;28;20041;-77
2023/03/23 09:01:08;;;;;;;27.03;16.90;;;;;;;11.76;49.06;64996.88;5074728;28;20075;-79
2023/03/23 09:03:43;;;;;;;31.88;16.48;;;;;;;11.87;48.98;65009.28;5074845;28;20076;-79
2023/03/23 09:06:29;;;;;;;28.20;15.65;;;;;;;12.07;48.80;65031.28;5043084;28;20045;-78
2023/03/23 09:08:58;;;;;;;23.15;15.35;;;;;;;12.25;47.73;65050.44;5056765;28;20564;-78
2023/03/23 09:11:24;;;;;;;25.15;14.73;;;;;;;12.37;47.58;65064.53;5061507;28;20143;-78
2023/03/23 09:13:50;;;;;;;23.65;15.13;;;;;;;12.46;47.50;65073.53;5075088;28;20126;-78
2023/03/23 09:16:16;;;;;;;22.75;14.02;;;;;;;12.55;47.90;65084.25;5073721;28;20522;-78
2023/03/23 09:18:42;;;;;;;22.30;13.60;;;;;;;12.32;47.37;65058.88;5056735;28;20098;-78
2023/03/23 09:21:08;;;;;;;22.75;13.60;;;;;;;12.38;47.40;65065.66;5056586;28;20139;-79
2023/03/23 09:23:35;;;;;;;23.50;13.18;;;;;;;12.48;46.98;65075.78;5056552;28;20040;-78
2023/03/23 09:26:02;;;;;;;25.25;13.52;;;;;;;12.36;47.28;65063.38;5039986;28;20415;-79
2023/03/23 09:28:30;;;;;;;23.60;13.02;;;;;;;12.49;47.82;65076.94;5039800;28;20052;-78
2023/03/23 09:30:57;;;;;;;26.10;13.43;;;;;;;12.69;46.76;65099.47;5073071;28;20114;-78
2023/03/23 09:33:24;;;;;;;26.02;12.77;;;;;;;12.65;47.17;65094.97;5072944;28;20040;-79
2023/03/23 09:35:50;;;;;;;22.63;13.05;;;;;;;13.03;46.81;65137.25;5056003;28;20072;-78
2023/03/23 09:38:15;;;;;;;20.67;12.60;;;;;;;13.20;46.41;65155.28;5074183;28;20075;-77
2023/03/23 09:40:50;;;;;;;18.65;12.63;;;;;;;13.32;46.10;65169.44;5072593;28;20056;-78
2023/03/23 09:43:32;;;;;;;20.92;12.02;;;;;;;13.32;46.45;65169.44;5072744;28;20051;-79
2023/03/23 09:46:15;;;;;;;16.73;12.13;;;;;;;13.49;45.01;65187.47;5072853;28;20055;-77
2023/03/23 09:48:47;;;;;;;21.75;11.70;;;;;;;13.64;45.38;65203.84;5039514;28;20071;-77
2023/03/23 09:51:25;;;;;;;24.30;11.90;;;;;;;13.69;44.71;65210.06;5072408;28;20053;-78
2023/03/23 09:53:57;;;;;;;16.98;11.60;;;;;;;13.66;45.24;65206.66;5073729;28;20052;-78
2023/03/23 09:56:27;;;;;;;21.20;11.75;;;;;;;13.58;45.01;65197.66;5055573;28;20050;-77
2023/03/23 09:59:02;;;;;;;19.00;11.18;;;;;;;13.55;44.71;65194.25;5056052;28;20040;-77
2023/03/23 10:01:45;;;;;;;23.65;11.60;;;;;;;13.47;45.53;65185.22;5039165;28;20044;-77
2023/03/23 10:04:39;;;;;;;21.45;10.70;;;;;;;13.56;45.27;65195.38;5073088;28;20170;-78
2023/03/23 10:07:15;;;;;;;18.58;11.50;;;;;;;13.77;45.31;65218.53;5055766;28;20043;-77
2023/03/23 10:09:45;;;;;;;21.13;10.80;;;;;;;14.10;44.74;65255.19;5073031;28;20036;-77
2023/03/23 10:12:21;;;;;;;17.85;10.35;;;;;;;14.28;43.98;65275.53;5073580;28;20035;-78
2023/03/23 10:15:06;;;;;;;29.00;11.15;;;;;;;14.33;43.80;65281.19;5055417;28;20506;-76
2023/03/23 10:17:54;;;;;;;23.60;11.38;;;;;;;14.49;43.74;65298.72;5073207;28;20098;-78
2023/03/23 10:20:38;;;;;;;21.70;11.23;;;;;;;14.74;43.01;65326.38;5073853;28;20048;-78
2023/03/23 10:23:20;;;;;;;17.55;10.65;;;;;;;14.86;43.25;65338.81;5073323;28;20070;-77
2023/03/23 10:26:00;;;;;;;38.03;12.57;;;;;;;15.04;43.16;65359.72;5038903;28;20040;-78
2023/03/23 10:28:44;;;;;;;21.63;11.43;;;;;;;15.49;42.37;65409.44;5072931;28;20106;-78
2023/03/23 10:31:14;;;;;;;27.17;11.30;;;;;;;14.58;42.59;65308.31;5055231;28;20109;-76
2023/03/23 10:33:44;;;;;;;18.45;12.05;;;;;;;14.79;42.42;65331.47;5071987;28;20139;-77
2023/03/23 10:36:13;;;;;;;28.83;10.82;;;;;;;14.19;42.76;65264.81;5055277;28;20063;-80
2023/03/23 10:38:49;;;;;;;;;;;;;;;14.21;44.02;65267.06;5039355;28;20143;-78
2023/03/23 10:41:20;;;;;;;20.65;11.60;;;;;;;14.78;43.44;65330.91;5038853;28;20329;-78
2023/03/23 10:43:49;;;;;;;22.15;10.77;;;;;;;15.13;42.21;65369.31;5055033;28;20205;-78
2023/03/23 10:46:54;;;;;;;18.23;10.45;;;;;;;15.40;42.14;65398.72;5054982;28;20044;-76
2023/03/23 10:49:28;;;;;;;23.98;11.25;;;;;;;15.73;40.98;65435.47;5073429;28;20127;-79
2023/03/23 10:52:11;;;;;;;18.15;10.20;;;;;;;15.70;40.32;65432.63;5071479;28;20052;-78
2023/03/23 10:54:46;;;;;;;25.90;11.20;;;;;;;15.82;40.88;65445.09;5054560;28;20048;-77
2023/03/23 10:57:21;;;;;;;19.88;9.82;;;;;;;15.97;40.36;65462.03;5072343;28;20044;-78
2023/03/23 10:59:47;;;;;;;20.85;10.80;;;;;;;16.12;40.25;65478.44;5054555;28;20419;-77
2023/03/23 11:02:20;;;;;;;22.73;10.88;;;;;;;16.24;40.26;65492.56;5037855;28;20077;-77
2023/03/23 11:04:56;;;;;;;24.58;11.35;;;;;;;16.44;39.72;65514.09;5054640;28;20093;-77
2023/03/23 11:07:29;;;;;;;17.83;10.18;;;;;;;16.67;39.38;65540.13;5055205;28;20578;-78
2023/03/23 11:10:03;;;;;;;18.98;10.63;;;;;;;16.71;39.24;65544.06;5072866;28;20068;-78
2023/03/23 11:12:34;;;;;;;18.98;11.07;;;;;;;16.86;38.81;65561.06;5071444;28;20403;-78
2023/03/23 11:15:30;;;;;;;21.45;11.05;;;;;;;17.11;38.26;65588.81;5072507;28;20054;-78
2023/03/23 11:18:02;;;;;;;23.35;10.50;;;;;;;16.75;38.27;65548.63;5071348;28;20080;-77
2023/03/23 11:20:35;;;;;;;19.52;11.73;;;;;;;17.01;38.62;65576.94;5078309;28;20036;-79
2023/03/23 11:23:15;;;;;;;19.67;10.30;;;;;;;17.12;38.10;65589.94;5057641;28;20055;-79
2023/03/23 11:26:07;;;;;;;22.55;10.93;;;;;;;17.09;37.88;65586.53;5077437;28;20048;-79
2023/03/23 11:28:36;;;;;;;24.65;9.80;;;;;;;17.42;37.56;65622.78;5078563;28;20438;-78
2023/03/23 11:31:05;;;;;;;15.52;10.77;;;;;;;17.65;37.36;65648.81;5074897;28;20089;-78
2023/03/23 11:33:42;;;;;;;19.60;10.82;;;;;;;17.86;36.73;65671.50;5078545;28;20093;-78
2023/03/23 11:36:09;;;;;;;27.13;11.40;;;;;;;18.08;36.82;65696.41;5095226;28;20514;-77
2023/03/23 11:38:36;;;;;;;18.15;10.70;;;;;;;18.14;36.25;65703.22;5078370;28;20032;-77
2023/03/23 11:41:10;;;;;;;51.67;11.02;;;;;;;18.40;35.79;65731.56;5078154;28;20384;-80
2023/03/23 11:43:39;;;;;;;17.40;10.60;;;;;;;18.63;35.54;65757.06;5042656;28;20553;-81
2023/03/23 11:46:11;;;;;;;19.83;10.50;;;;;;;18.77;35.13;65772.38;5075823;28;20068;-76
2023/03/23 11:48:47;;;;;;;18.35;10.63;;;;;;;18.82;34.53;65778.06;5076243;28;20044;-79
2023/03/23 11:51:20;;;;;;;29.73;11.20;;;;;;;18.81;35.29;65776.94;5076255;28;20070;-81
2023/03/23 11:54:21;;;;;;;16.27;10.18;;;;;;;18.95;34.87;65792.78;5058392;28;20037;-79
2023/03/23 11:56:47;;;;;;;15.93;9.23;;;;;;;19.16;37.22;65816.06;5077029;28;20076;-77